METAR AND TAF INFORMATION
METAR FOR LFRS
ADDS - METARS form results

(2245 UTC 28 November 2020)
Data provider http://aviationweather.gov/metar/data/
 
METAR text: LFRS 282230Z AUTO 05007KT CAVOK 09/07 Q1015 NOSIG
Conditions at: LFRS (NANTES/CHATEAU B, FR) observed 2230 UTC 28 November 2020
Temperature: 9.0°C (48°F)
Dewpoint: 7.0°C (45°F) [RH = 87%]
Pressure (altimeter): 29.97 inches Hg (1015.0 mb)
Winds: from the NE (50 degrees) at 8 MPH (7 knots; 3.6 m/s)
Visibility: 6 or more miles (10+ km)
Ceiling: ceiling and visibility are OK
Clouds: unknown
Weather: no significant weather observed at this time

METAR text: LFRS 282200Z AUTO 05007KT CAVOK 09/07 Q1015 NOSIG
Conditions at: LFRS (NANTES/CHATEAU B, FR) observed 2200 UTC 28 November 2020
Temperature: 9.0°C (48°F)
Dewpoint: 7.0°C (45°F) [RH = 87%]
Pressure (altimeter): 29.97 inches Hg (1015.0 mb)
Winds: from the NE (50 degrees) at 8 MPH (7 knots; 3.6 m/s)
Visibility: 6 or more miles (10+ km)
Ceiling: ceiling and visibility are OK
Clouds: unknown
Weather: no significant weather observed at this time

Forecast for: LFRS (NANTES/CHATEAU B, FR)
Text: TAF LFRS 281700Z 2818/2924 05008KT CAVOK
Forecast period: 1800 UTC 28 November 2020 to 0000 UTC 30 November 2020
Forecast type: FROM: standard forecast or significant change
Winds: from the NE (50 degrees) at 9 MPH (8 knots; 4.1 m/s)
Visibility: 6 or more miles (10+ km)
Ceiling: unknown
Clouds: missing
Weather: NSW  (no significant weather)

 AIRPORT MAP

 RUNWAY INFORMATION
Runway 03 Runway length 9514 ft Runway width 148 ft
Runway elevation 73 ft Runway displaced threshold 0 ft Runway heading 28
Runway 21 Runway length 9514 ft Runway width 148 ft
Runway elevation 86 ft Runway displaced threshold 694 ft Runway heading 208

 AIRPORT FREQUENCIES
Type APP Name APP Frequency 130.275 MHZ
Type ATIS Name ATIS Frequency 126.925 MHZ
Type GND Name GND Frequency 121.875 MHZ
Type INFO Name INFO Frequency 129.875 MHZ
Type TWR Name TWR Frequency 118.65 MHZ

 AIRPORT NEAR NAVIGATION AIDS
Type NDB Name Nantes Frequency 369 KHZ
Type VOR-DME Name Nantes Frequency 115500 KHZ



Powered by Virtual Airlines Manager [v2.6.2]